Search for airport 
image banner adimage banner adimage banner ad
image banner ad

39CA - Sce Palm Springs District

Located in Cathedral City, United States

ICAO - 39CA, IATA -

Data provided by Airmate  

General information

Coordinates: N33°47'12" W116°27'52"
Elevation is 300 feet MSL.
Magnetic variation is 14° East
View others Airports in California

Operational data

Special qualification required
Current time UTC:
Current local time:
Weather at : KPSP - Palm Springs Intl ( 6 km )
METAR: KPSP 221353Z 19003KT 10SM CLR 29/11 A2980 RMK AO2 SLP087 T02890111 $
TAF: KPSP 221137Z 2212/2312 VRB06KT P6SM BKN200 FM222200 33012G22KT P6SM SCT250 FM230600 VRB04KT P6SM BKN200
View NOTAMs / SUP AIP / TFR affecting this airport [VIEW]
Communications frequencies: [VIEW]

Runways:

Airport contact information

Address: Cathedral City United States

Satellite view of 39CA